Time;durP1;ratioP1;P1;durP2;ratioP2;P2;SDS_P1;SDS_P2;PMS_P1;PMS_P2;Temp;Humidity;BMP_temperature;BMP_pressure;BME280_temperature;BME280_humidity;BME280_pressure;Samples;Min_cycle;Max_cycle;Signal;HPM_P1;HPM_P2
2020/12/17 00:01:59;;;;;;;2.90;1.30;;;12.00;67.20;;;;;;20724464;28;20037;-75
2020/12/17 00:12:00;;;;;;;0.70;0.60;;;11.90;67.10;;;;;;20729540;28;20124;-77
2020/12/17 00:22:02;;;;;;;1.45;1.02;;;11.90;67.30;;;;;;20728732;28;20121;-75
2020/12/17 00:32:03;;;;;;;1.88;1.00;;;11.90;67.10;;;;;;20765967;28;20364;-76
2020/12/17 00:42:08;;;;;;;1.42;0.73;;;11.90;67.10;;;;;;20768754;28;20088;-75
2020/12/17 00:52:09;;;;;;;1.52;1.00;;;11.90;67.10;;;;;;20763023;28;20082;-76
2020/12/17 01:02:09;;;;;;;1.10;0.85;;;11.90;67.00;;;;;;20758806;28;20142;-76
2020/12/17 01:12:13;;;;;;;2.65;0.85;;;11.90;67.00;;;;;;20771339;28;20029;-76
2020/12/17 01:22:13;;;;;;;1.38;1.20;;;11.90;66.90;;;;;;20767425;28;20507;-76
2020/12/17 01:32:15;;;;;;;0.85;0.60;;;11.90;67.00;;;;;;20739165;28;20125;-76
2020/12/17 01:42:15;;;;;;;1.80;1.33;;;12.00;67.00;;;;;;20779059;28;20393;-77
2020/12/17 01:52:17;;;;;;;2.70;0.80;;;11.90;66.90;;;;;;20756161;28;20041;-77
2020/12/17 02:02:18;;;;;;;2.70;1.17;;;11.90;67.00;;;;;;20767460;28;20038;-75
2020/12/17 02:12:19;;;;;;;3.25;0.47;;;11.90;66.90;;;;;;20766093;28;20049;-76
2020/12/17 02:22:20;;;;;;;3.28;1.23;;;11.90;66.90;;;;;;20765636;28;20046;-76
2020/12/17 02:32:21;;;;;;;3.85;1.23;;;11.90;66.80;;;;;;20753519;28;20356;-77
2020/12/17 02:42:21;;;;;;;2.17;0.65;;;11.90;66.80;;;;;;20735436;28;20037;-77
2020/12/17 02:52:22;;;;;;;2.83;1.23;;;11.90;66.70;;;;;;20736126;28;20026;-75
2020/12/17 03:02:22;;;;;;;2.03;1.35;;;11.90;66.70;;;;;;20781264;28;20045;-76
2020/12/17 03:12:24;;;;;;;1.77;1.10;;;11.90;66.70;;;;;;20755051;28;20077;-75
2020/12/17 03:22:24;;;;;;;2.85;0.90;;;11.80;66.70;;;;;;20729203;28;20033;-75
2020/12/17 03:32:25;;;;;;;3.13;0.90;;;11.90;66.70;;;;;;20752574;28;20388;-75
2020/12/17 03:42:26;;;;;;;2.13;1.43;;;11.90;66.60;;;;;;20765530;28;20041;-75
2020/12/17 03:52:27;;;;;;;2.15;1.08;;;11.80;66.60;;;;;;20755827;28;20294;-76
2020/12/17 04:02:29;;;;;;;1.15;0.75;;;11.80;66.70;;;;;;20757565;28;20148;-76
2020/12/17 04:12:30;;;;;;;3.13;1.92;;;11.90;66.70;;;;;;20756604;28;20045;-76
2020/12/17 04:22:31;;;;;;;1.63;0.70;;;11.80;66.70;;;;;;20768417;28;20052;-76
2020/12/17 04:32:32;;;;;;;3.88;0.93;;;11.80;66.70;;;;;;20736876;28;20026;-75
2020/12/17 04:42:33;;;;;;;1.27;0.55;;;11.90;66.80;;;;;;20763991;28;20044;-76
2020/12/17 04:52:36;;;;;;;1.95;0.70;;;11.80;66.70;;;;;;20751476;28;20073;-76
2020/12/17 05:02:37;;;;;;;3.90;1.30;;;11.80;66.70;;;;;;20746235;28;20125;-76
2020/12/17 05:12:37;;;;;;;1.83;0.93;;;11.80;66.80;;;;;;20760162;28;20088;-76
2020/12/17 05:22:43;;;;;;;0.70;0.70;;;11.90;67.00;;;;;;20749344;28;20442;-76
2020/12/17 05:32:45;;;;;;;1.25;1.02;;;12.00;66.90;;;;;;20781658;28;20378;-76
2020/12/17 05:42:49;;;;;;;1.50;0.70;;;12.20;66.70;;;;;;20748455;28;20221;-76
2020/12/17 05:52:52;;;;;;;1.38;1.00;;;12.40;66.20;;;;;;20759799;28;20488;-76
2020/12/17 06:02:53;;;;;;;1.52;0.93;;;12.50;65.70;;;;;;20732968;28;20037;-76
2020/12/17 06:12:56;;;;;;;3.28;1.05;;;12.60;65.10;;;;;;20766811;28;20034;-76
2020/12/17 06:23:04;;;;;;;4.57;1.10;;;12.60;64.70;;;;;;20737204;28;20046;-77
2020/12/17 06:33:07;;;;;;;1.27;0.68;;;12.60;64.40;;;;;;20762785;28;20045;-75
2020/12/17 06:43:11;;;;;;;2.75;1.23;;;12.50;65.00;;;;;;20732468;28;20380;-76
2020/12/17 06:53:18;;;;;;;1.25;0.70;;;12.40;64.60;;;;;;20748954;28;20041;-76
2020/12/17 07:03:40;;;;;;;1.70;0.97;;;12.20;64.80;;;;;;20744072;28;20076;-76
2020/12/17 07:13:41;;;;;;;2.03;1.15;;;12.20;65.00;;;;;;20757106;28;20443;-77
2020/12/17 07:23:42;;;;;;;1.77;0.82;;;12.10;65.20;;;;;;20774770;28;20087;-80
2020/12/17 07:33:45;;;;;;;1.45;0.82;;;12.00;65.50;;;;;;20768625;28;20523;-77
2020/12/17 07:43:45;;;;;;;0.82;0.50;;;12.00;65.70;;;;;;20760547;28;20171;-75
2020/12/17 07:53:47;;;;;;;0.95;0.50;;;12.00;66.00;;;;;;20765767;28;20120;-74
2020/12/17 08:03:54;;;;;;;1.63;0.75;;;12.00;66.00;;;;;;20730464;28;20046;-77
2020/12/17 08:14:06;;;;;;;1.08;0.63;;;12.00;66.10;;;;;;20726893;28;20041;-75
2020/12/17 08:24:10;;;;;;;0.95;0.47;;;12.00;66.20;;;;;;20706159;28;20086;-76
2020/12/17 08:34:11;;;;;;;1.48;0.57;;;12.00;66.40;;;;;;20689083;28;20077;-77
2020/12/17 08:44:12;;;;;;;1.63;1.05;;;12.00;66.30;;;;;;20715007;28;20034;-77
2020/12/17 08:54:36;;;;;;;1.85;0.65;;;12.00;66.40;;;;;;20729721;28;20456;-77
2020/12/17 09:14:54;;;;;;;1.47;1.10;;;12.00;66.30;;;;;;20947343;22;20286;-74
2020/12/17 09:24:54;;;;;;;1.08;0.55;;;12.00;66.30;;;;;;20746650;28;20088;-78
2020/12/17 09:35:04;;;;;;;1.48;1.00;;;12.00;66.30;;;;;;20759226;28;20501;-75
2020/12/17 09:45:15;;;;;;;2.30;0.60;;;12.00;66.40;;;;;;20737064;28;20052;-77
2020/12/17 09:55:16;;;;;;;1.42;0.88;;;12.00;66.40;;;;;;20770626;28;20038;-76
2020/12/17 10:05:20;;;;;;;0.68;0.32;;;12.00;66.50;;;;;;20739437;28;20431;-75
2020/12/17 10:15:22;;;;;;;1.60;1.02;;;12.00;66.50;;;;;;20746694;28;20041;-77
2020/12/17 10:25:24;;;;;;;1.58;0.45;;;12.00;66.50;;;;;;20752805;28;20041;-79
2020/12/17 10:35:24;;;;;;;1.10;0.68;;;12.00;66.60;;;;;;20723641;28;20245;-77
2020/12/17 10:45:26;;;;;;;1.25;0.77;;;11.90;66.60;;;;;;20768630;28;20029;-75
2020/12/17 10:55:26;;;;;;;0.85;0.47;;;12.00;66.70;;;;;;20759517;28;20051;-79
2020/12/17 11:05:28;;;;;;;0.95;0.73;;;12.00;66.70;;;;;;20758789;28;20058;-76
2020/12/17 11:15:29;;;;;;;0.82;0.70;;;11.90;66.70;;;;;;20758051;28;20494;-84
2020/12/17 11:25:36;;;;;;;1.38;0.52;;;11.90;66.80;;;;;;20752344;28;20029;-80
2020/12/17 11:35:39;;;;;;;1.38;0.77;;;11.90;66.80;;;;;;20746118;28;20041;-76
2020/12/17 11:45:40;;;;;;;1.65;0.85;;;11.90;66.80;;;;;;20727975;28;20030;-76
2020/12/17 11:55:42;;;;;;;1.10;0.63;;;11.90;66.80;;;;;;20763287;28;20639;-77
2020/12/17 12:05:43;;;;;;;1.58;1.00;;;11.90;66.90;;;;;;20759104;28;20044;-76
2020/12/17 12:15:43;;;;;;;1.08;0.45;;;11.90;66.90;;;;;;20778541;28;20034;-77
2020/12/17 12:25:44;;;;;;;1.73;1.25;;;11.90;66.90;;;;;;20758369;28;20038;-75
2020/12/17 12:35:45;;;;;;;0.85;0.60;;;11.90;66.90;;;;;;20770075;28;20030;-76
2020/12/17 12:45:46;;;;;;;0.50;0.50;;;11.90;67.00;;;;;;20777402;28;20118;-76
2020/12/17 12:55:48;;;;;;;1.90;0.52;;;11.90;67.00;;;;;;20753001;28;20083;-77
2020/12/17 13:05:49;;;;;;;2.42;0.88;;;11.90;67.00;;;;;;20768797;28;20544;-76
2020/12/17 13:15:52;;;;;;;0.75;0.30;;;11.90;67.00;;;;;;20756051;28;20033;-74
2020/12/17 13:25:54;;;;;;;1.92;0.75;;;11.90;67.10;;;;;;20742080;28;20042;-82
2020/12/17 13:35:55;;;;;;;0.75;0.60;;;11.90;66.90;;;;;;20752187;28;20064;-77
2020/12/17 13:45:56;;;;;;;1.70;0.85;;;11.90;67.00;;;;;;20766970;28;20065;-77
2020/12/17 13:55:57;;;;;;;1.50;0.65;;;11.90;67.10;;;;;;20739011;28;20036;-78
2020/12/17 14:05:59;;;;;;;0.98;0.82;;;11.90;67.10;;;;;;20765506;28;20055;-80
2020/12/17 14:16:03;;;;;;;1.20;0.60;;;11.90;67.10;;;;;;20812849;28;20157;-83
2020/12/17 14:26:07;;;;;;;1.33;0.88;;;11.90;67.20;;;;;;20778942;28;20411;-78
2020/12/17 14:36:08;;;;;;;0.45;0.38;;;11.90;67.20;;;;;;20785561;28;20127;-77
2020/12/17 14:46:09;;;;;;;0.70;0.60;;;11.90;67.20;;;;;;20756262;28;20078;-78
2020/12/17 14:56:15;;;;;;;0.93;0.50;;;11.90;67.20;;;;;;20723096;28;20033;-80
2020/12/17 15:06:15;;;;;;;0.50;0.40;;;11.90;67.30;;;;;;20718001;28;20041;-77
2020/12/17 15:16:18;;;;;;;0.70;0.70;;;11.90;67.40;;;;;;20782230;28;20034;-78
2020/12/17 15:26:19;;;;;;;1.77;0.93;;;12.00;67.50;;;;;;20721044;28;20046;-79
2020/12/17 15:36:22;;;;;;;0.90;0.80;;;12.10;67.30;;;;;;20752756;28;20510;-77
2020/12/17 15:46:23;;;;;;;0.60;0.50;;;12.30;66.90;;;;;;20739528;28;20296;-80
2020/12/17 15:56:28;;;;;;;1.95;1.02;;;12.40;66.50;;;;;;20750109;28;20046;-79
2020/12/17 16:06:28;;;;;;;2.13;0.60;;;12.60;66.60;;;;;;20760358;28;20073;-76
2020/12/17 16:16:30;;;;;;;1.20;0.68;;;12.70;65.50;;;;;;20749317;28;20050;-75
2020/12/17 16:26:34;;;;;;;1.08;0.90;;;12.70;65.00;;;;;;20762073;28;20025;-75
2020/12/17 16:36:37;;;;;;;1.95;0.77;;;12.60;64.90;;;;;;20779979;28;20033;-74
2020/12/17 16:46:39;;;;;;;1.17;0.80;;;12.50;65.00;;;;;;20740128;28;20034;-75
2020/12/17 16:56:40;;;;;;;0.82;0.45;;;12.40;65.40;;;;;;20736056;28;20099;-79
2020/12/17 17:06:41;;;;;;;1.02;0.68;;;12.30;65.70;;;;;;20760828;28;20037;-77
2020/12/17 17:16:41;;;;;;;1.23;0.82;;;12.20;66.00;;;;;;20766274;28;20396;-77
2020/12/17 17:26:49;;;;;;;1.00;0.40;;;12.10;66.20;;;;;;20768435;28;20527;-76
2020/12/17 17:36:50;;;;;;;1.25;0.70;;;12.10;66.50;;;;;;20728243;28;20087;-75
2020/12/17 17:47:02;;;;;;;1.23;0.80;;;12.00;66.60;;;;;;20766770;28;20033;-73
2020/12/17 17:57:04;;;;;;;0.63;0.40;;;12.00;66.70;;;;;;20755023;28;20061;-74
2020/12/17 18:07:06;;;;;;;2.33;0.73;;;12.00;66.80;;;;;;20745035;28;20136;-75
2020/12/17 18:17:08;;;;;;;1.75;0.70;;;12.00;67.00;;;;;;20754590;28;20061;-74
2020/12/17 18:27:09;;;;;;;2.55;0.80;;;11.90;67.00;;;;;;20756289;28;20041;-78
2020/12/17 18:37:12;;;;;;;1.05;0.55;;;12.00;67.10;;;;;;20738144;28;20125;-78
2020/12/17 18:47:14;;;;;;;1.40;0.95;;;12.00;67.20;;;;;;20727657;28;20034;-80
2020/12/17 18:57:14;;;;;;;1.30;0.60;;;12.00;67.20;;;;;;20743631;28;20114;-75
2020/12/17 19:07:15;;;;;;;0.80;0.80;;;11.90;67.10;;;;;;20741775;28;20042;-75
2020/12/17 19:17:16;;;;;;;0.35;0.28;;;12.00;67.20;;;;;;20744155;28;20045;-82
2020/12/17 19:27:20;;;;;;;0.50;0.50;;;11.90;67.20;;;;;;20775103;28;20034;-76
2020/12/17 19:37:22;;;;;;;0.20;0.20;;;11.90;67.20;;;;;;20782376;28;20034;-76
2020/12/17 19:47:23;;;;;;;0.65;0.60;;;11.90;67.30;;;;;;20757047;28;20030;-78
2020/12/17 19:57:27;;;;;;;1.80;0.90;;;11.90;67.30;;;;;;20785568;28;20061;-73
2020/12/17 20:07:30;;;;;;;1.17;0.77;;;11.90;67.30;;;;;;20729717;28;20408;-73
2020/12/17 20:17:31;;;;;;;2.42;0.98;;;11.90;67.30;;;;;;20759521;28;20036;-76
2020/12/17 20:27:32;;;;;;;0.98;0.63;;;11.90;67.40;;;;;;20763756;28;20484;-76
2020/12/17 20:37:33;;;;;;;1.33;0.52;;;11.90;67.50;;;;;;20733545;28;20308;-74
2020/12/17 20:47:34;;;;;;;0.85;0.60;;;11.90;67.40;;;;;;20768914;28;20038;-75
2020/12/17 20:57:35;;;;;;;1.15;0.75;;;11.90;67.40;;;;;;20718295;28;20040;-74
2020/12/17 21:07:36;;;;;;;3.17;0.53;;;11.90;67.40;;;;;;20720646;28;20403;-74
2020/12/17 21:17:37;;;;;;;1.55;0.90;;;11.80;67.40;;;;;;20723227;28;20367;-74
2020/12/17 21:27:37;;;;;;;0.90;0.82;;;11.90;67.50;;;;;;20756971;28;20038;-76
2020/12/17 21:37:38;;;;;;;0.70;0.52;;;11.80;67.40;;;;;;20758099;28;20032;-73
2020/12/17 21:47:39;;;;;;;1.13;0.65;;;11.90;67.50;;;;;;20744333;28;20137;-74
2020/12/17 21:57:39;;;;;;;0.47;0.47;;;11.80;67.50;;;;;;20714196;28;20041;-74
2020/12/17 22:07:40;;;;;;;1.77;0.82;;;11.90;67.60;;;;;;20718811;28;20030;-74
2020/12/17 22:17:42;;;;;;;0.63;0.60;;;11.90;67.60;;;;;;20703895;28;20034;-74
2020/12/17 22:27:42;;;;;;;0.90;0.70;;;11.90;67.60;;;;;;20679971;28;20038;-74
2020/12/17 22:37:43;;;;;;;2.00;0.85;;;11.80;67.50;;;;;;20724397;28;20054;-74
2020/12/17 22:47:46;;;;;;;1.38;0.65;;;11.80;67.60;;;;;;20694718;28;20030;-74
2020/12/17 22:57:47;;;;;;;1.02;0.75;;;11.80;67.50;;;;;;20697879;28;20050;-73
2020/12/17 23:07:47;;;;;;;0.98;0.88;;;11.80;67.60;;;;;;20729203;28;20049;-73
2020/12/17 23:17:48;;;;;;;1.52;0.90;;;11.80;67.60;;;;;;20720985;28;20330;-74
2020/12/17 23:27:50;;;;;;;0.80;0.63;;;11.80;67.60;;;;;;20722744;28;20281;-75
2020/12/17 23:37:51;;;;;;;1.25;0.73;;;11.80;67.60;;;;;;20742960;28;20037;-74
2020/12/17 23:47:52;;;;;;;0.82;0.68;;;11.80;67.60;;;;;;20756094;28;20388;-73
2020/12/17 23:57:52;;;;;;;1.65;0.70;;;11.80;67.60;;;;;;20748363;28;20040;-74
